CYYT

St. John's International Airport

St. John's, Canada
METAR CYYT 192100Z 24010KT 15SM SCT040 M01/M06 A3020 RMK SC4 SLP236
Observed Flight Rules
Nov-19 @ 21:00 UTC (an hour ago) Visual Flight Rules
Wind Visibility Clouds
240° at 10 knots 15 miles
  • Scattered at 4,000' AGL
Temperatures Readings
Current -1°C / 30°F
Dewpoint -6°C / 21°F
Humidity 69%
Altimeter 30.2" Hg
Pressure 1023.6 hPa
Elevation 140
METAR CYYT 192100Z 24010KT 15SM SCT040 M01/M06 A3020 RMK SC4 SLP236
Observed Flight Rules
Nov-19 @ 21:00 UTC
(an hour ago)
VFR
Wind Visibility
240° at 10 knots 15 miles
Clouds
  • Scattered at 4,000' AGL
Temperature Dewpoint
-1°C / 30°F -6°C / 21°F
Humidity Altimeter Pressure
69% 30.2" Hg 1023.6 hPa